createdAt,value
2018-03-06T00:00:21.839Z,0.70
2018-03-06T00:02:50.291Z,0.50
2018-03-06T00:05:18.560Z,0.30
2018-03-06T00:07:49.908Z,0.10
2018-03-06T00:10:18.544Z,0.10
2018-03-06T00:12:46.818Z,0.20
2018-03-06T00:15:15.110Z,0.10
2018-03-06T00:17:43.439Z,0.10
2018-03-06T00:20:11.939Z,0.20
2018-03-06T00:22:40.214Z,0.00
2018-03-06T00:25:08.729Z,0.20
2018-03-06T00:27:37.001Z,0.60
2018-03-06T00:30:05.285Z,0.70
2018-03-06T00:32:34.475Z,0.40
2018-03-06T00:35:02.743Z,0.30
2018-03-06T00:37:31.033Z,0.10
2018-03-06T00:40:00.100Z,0.30
2018-03-06T00:42:28.380Z,0.30
2018-03-06T00:45:00.235Z,0.30
2018-03-06T00:47:28.575Z,0.30
2018-03-06T00:49:57.644Z,0.40
2018-03-06T00:52:26.685Z,0.30
2018-03-06T00:54:54.996Z,0.30
2018-03-06T00:57:23.306Z,0.10
2018-03-06T00:59:52.350Z,0.20
2018-03-06T01:02:20.679Z,0.20
2018-03-06T01:04:49.708Z,0.20
2018-03-06T01:07:17.974Z,0.20
2018-03-06T01:09:48.026Z,-0.10
2018-03-06T01:12:16.318Z,-0.20
2018-03-06T01:14:45.366Z,0.10
2018-03-06T01:17:14.025Z,0.10
2018-03-06T01:19:43.062Z,0.00
2018-03-06T01:22:12.859Z,0.00
2018-03-06T01:24:41.492Z,0.00
2018-03-06T01:27:10.549Z,-0.20
2018-03-06T01:29:38.850Z,-0.20
2018-03-06T01:32:07.439Z,-0.20
2018-03-06T01:34:39.882Z,-0.30
2018-03-06T01:37:08.420Z,-0.30
2018-03-06T01:39:37.472Z,-0.40
2018-03-06T01:42:05.776Z,-0.50
2018-03-06T01:44:34.872Z,-0.50
2018-03-06T01:47:04.942Z,-0.50
2018-03-06T01:49:33.257Z,-0.50
2018-03-06T01:52:01.567Z,-0.40
2018-03-06T01:54:29.854Z,-0.20
2018-03-06T01:56:58.131Z,-0.30
2018-03-06T01:59:28.802Z,-0.50
2018-03-06T02:01:57.066Z,-0.50
2018-03-06T02:04:25.351Z,-0.60
2018-03-06T02:06:53.874Z,-0.70
2018-03-06T02:09:22.925Z,-0.80
2018-03-06T02:11:51.195Z,-0.80
2018-03-06T02:14:19.807Z,-0.90
2018-03-06T02:16:48.107Z,-0.90
2018-03-06T02:19:17.881Z,-0.90
2018-03-06T02:21:46.287Z,-0.90
2018-03-06T02:24:15.415Z,-0.90
2018-03-06T02:26:43.708Z,-0.90
2018-03-06T02:29:12.040Z,-0.80
2018-03-06T02:31:40.325Z,-0.90
2018-03-06T02:34:08.627Z,-1.00
2018-03-06T02:36:38.725Z,-1.00
2018-03-06T02:39:07.797Z,-1.00
2018-03-06T02:41:36.101Z,-1.10
2018-03-06T02:44:05.286Z,-1.00
2018-03-06T02:46:34.354Z,-1.10
2018-03-06T02:49:06.070Z,-1.10
2018-03-06T02:51:34.349Z,-1.00
2018-03-06T02:54:02.632Z,-1.10
2018-03-06T02:56:31.044Z,-1.10
2018-03-06T02:58:59.339Z,-1.00
2018-03-06T03:01:30.747Z,-1.10
2018-03-06T03:03:59.066Z,-1.20
2018-03-06T03:06:28.859Z,-1.10
2018-03-06T03:08:57.181Z,-1.10
2018-03-06T03:11:26.357Z,-1.10
2018-03-06T03:13:56.534Z,-1.10
2018-03-06T03:16:24.812Z,-1.10
2018-03-06T03:18:53.260Z,-1.10
2018-03-06T03:21:21.554Z,-1.20
2018-03-06T03:23:49.861Z,-1.10
2018-03-06T03:26:19.782Z,-1.20
2018-03-06T03:28:48.062Z,-1.20
2018-03-06T03:31:16.338Z,-1.20
2018-03-06T03:33:44.662Z,-1.10
2018-03-06T03:36:12.936Z,-1.20
2018-03-06T03:38:43.197Z,-1.20
2018-03-06T03:41:11.508Z,-1.20
2018-03-06T03:43:40.539Z,-1.20
2018-03-06T03:46:08.810Z,-1.20
2018-03-06T03:48:37.884Z,-1.30
2018-03-06T03:51:09.507Z,-1.30
2018-03-06T03:53:37.805Z,-1.30
2018-03-06T03:56:06.889Z,-1.30
2018-03-06T03:58:36.673Z,-1.40
2018-03-06T04:01:04.940Z,-1.40
2018-03-06T04:03:34.105Z,-1.40
2018-03-06T04:06:02.355Z,-1.40
2018-03-06T04:08:31.403Z,-1.30
2018-03-06T04:10:59.762Z,-1.30
2018-03-06T04:13:28.035Z,-1.40
2018-03-06T04:15:57.797Z,-1.40
2018-03-06T04:18:26.489Z,-1.40
2018-03-06T04:20:56.269Z,-1.50
2018-03-06T04:23:24.542Z,-1.50
2018-03-06T04:25:53.377Z,-1.40
2018-03-06T04:28:24.925Z,-1.30
2018-03-06T04:30:53.259Z,-1.40
2018-03-06T04:33:21.573Z,-1.30
2018-03-06T04:35:49.870Z,-1.00
2018-03-06T04:38:18.925Z,-0.80
2018-03-06T04:40:47.433Z,-0.80
2018-03-06T04:43:15.737Z,-0.70
2018-03-06T04:45:44.791Z,-0.70
2018-03-06T04:48:13.105Z,-0.70
2018-03-06T04:50:42.162Z,-0.80
2018-03-06T04:53:13.818Z,-0.90
2018-03-06T04:55:42.138Z,-1.00
2018-03-06T04:58:10.421Z,-1.20
2018-03-06T05:00:38.700Z,-1.10
2018-03-06T05:03:07.546Z,-0.90
2018-03-06T05:05:35.904Z,-0.90
2018-03-06T05:08:04.172Z,-1.20
2018-03-06T05:10:32.483Z,-1.40
2018-03-06T05:13:00.773Z,-1.50
2018-03-06T05:15:29.822Z,-1.50
2018-03-06T05:17:59.692Z,-1.50
2018-03-06T05:20:28.726Z,-1.60
2018-03-06T05:22:57.377Z,-1.60
2018-03-06T05:25:26.449Z,-1.60
2018-03-06T05:27:54.731Z,-1.60
2018-03-06T05:30:25.304Z,-1.60
2018-03-06T05:32:53.934Z,-1.60
2018-03-06T05:35:22.201Z,-1.60
2018-03-06T05:37:51.387Z,-1.60
2018-03-06T05:40:20.086Z,-1.60
2018-03-06T05:42:50.734Z,-1.60
2018-03-06T05:45:19.775Z,-1.40
2018-03-06T05:47:48.196Z,-1.40
2018-03-06T05:50:17.260Z,-1.30
2018-03-06T05:52:45.561Z,-1.30
2018-03-06T05:55:14.563Z,-1.30
2018-03-06T05:57:43.607Z,-1.50
2018-03-06T06:00:11.908Z,-1.50
2018-03-06T06:02:40.223Z,-1.30
2018-03-06T06:05:09.310Z,-1.10
2018-03-06T06:07:39.247Z,-1.30
2018-03-06T06:10:07.697Z,-1.30
2018-03-06T06:12:35.997Z,-1.20
2018-03-06T06:15:05.048Z,-1.30
2018-03-06T06:17:33.438Z,-1.40
2018-03-06T06:20:01.791Z,-1.50
2018-03-06T06:22:30.059Z,-1.30
2018-03-06T06:24:58.590Z,-1.40
2018-03-06T06:27:26.849Z,-1.40
2018-03-06T06:29:55.125Z,-1.40
2018-03-06T06:32:25.151Z,-1.40
2018-03-06T06:34:53.436Z,-1.50
2018-03-06T06:37:21.700Z,-1.40
2018-03-06T06:39:50.010Z,-1.40
2018-03-06T06:42:19.046Z,-1.20
2018-03-06T06:44:47.415Z,-1.20
2018-03-06T06:47:15.760Z,-1.20
2018-03-06T06:49:44.796Z,-1.10
2018-03-06T06:52:13.067Z,-1.20
2018-03-06T06:54:41.449Z,-1.00
2018-03-06T06:57:12.730Z,-1.10
2018-03-06T06:59:41.005Z,-1.00
2018-03-06T07:02:09.323Z,-1.00
2018-03-06T07:04:37.603Z,-0.90
2018-03-06T07:07:05.912Z,-0.90
2018-03-06T07:09:35.887Z,-0.80
2018-03-06T07:12:04.169Z,-0.80
2018-03-06T07:14:32.494Z,-0.70
2018-03-06T07:17:00.868Z,-0.60
2018-03-06T07:19:32.490Z,-0.50
2018-03-06T07:22:00.780Z,-0.50
2018-03-06T07:24:29.269Z,-0.30
2018-03-06T07:26:57.584Z,-0.20
2018-03-06T07:29:25.870Z,-0.20
2018-03-06T07:31:54.534Z,-0.10
2018-03-06T07:34:23.586Z,0.00
2018-03-06T07:36:51.839Z,0.00
2018-03-06T07:39:21.124Z,0.30
2018-03-06T07:41:50.168Z,0.30
2018-03-06T07:44:18.538Z,0.20
2018-03-06T07:46:49.712Z,0.30
2018-03-06T07:49:17.967Z,0.30
2018-03-06T07:51:46.261Z,0.20
2018-03-06T07:54:14.705Z,0.50
2018-03-06T07:56:43.008Z,0.60
2018-03-06T07:59:12.345Z,0.70
2018-03-06T08:01:41.166Z,0.80
2018-03-06T08:04:10.203Z,1.00
2018-03-06T08:06:38.470Z,1.10
2018-03-06T08:09:06.993Z,1.30
2018-03-06T08:11:38.010Z,1.30
2018-03-06T08:14:06.357Z,1.20
2018-03-06T08:16:34.791Z,0.90
2018-03-06T08:19:03.056Z,1.10
2018-03-06T08:21:31.335Z,1.20
2018-03-06T08:24:03.126Z,0.90
2018-03-06T08:26:32.166Z,1.50
2018-03-06T08:29:00.434Z,1.50
2018-03-06T08:31:29.843Z,1.70
2018-03-06T08:33:58.119Z,1.90
2018-03-06T08:36:27.455Z,1.60
2018-03-06T08:38:56.755Z,1.70
2018-03-06T08:41:25.042Z,1.70
2018-03-06T08:43:54.206Z,2.00
2018-03-06T08:46:24.007Z,2.00
2018-03-06T08:48:53.081Z,2.10
2018-03-06T08:51:21.338Z,2.40
2018-03-06T08:53:50.820Z,2.30
2018-03-06T08:56:19.106Z,2.60
2018-03-06T08:58:48.152Z,3.30
2018-03-06T09:01:17.757Z,3.20
2018-03-06T09:03:46.164Z,3.20
2018-03-06T09:06:14.572Z,3.40
2018-03-06T09:08:43.983Z,4.30
2018-03-06T09:11:12.255Z,4.40
2018-03-06T09:13:42.740Z,6.00
2018-03-06T09:16:11.248Z,5.90
2018-03-06T09:18:39.514Z,5.90
2018-03-06T09:21:07.810Z,5.30
2018-03-06T09:23:37.073Z,5.00
2018-03-06T09:26:06.150Z,4.90
2018-03-06T09:28:34.519Z,5.70
2018-03-06T09:31:02.822Z,6.00
2018-03-06T09:33:31.111Z,6.30
2018-03-06T09:35:59.381Z,6.20
2018-03-06T09:38:28.201Z,6.40
2018-03-06T09:40:57.245Z,7.00
2018-03-06T09:43:25.503Z,7.00
2018-03-06T09:45:53.909Z,6.20
2018-03-06T09:48:22.165Z,6.00
2018-03-06T09:50:52.146Z,5.90
2018-03-06T09:53:20.673Z,6.40
2018-03-06T09:55:48.954Z,6.70
2018-03-06T09:58:17.328Z,7.40
2018-03-06T10:00:45.726Z,7.10
2018-03-06T10:03:16.479Z,8.00
2018-03-06T10:05:44.737Z,8.00
2018-03-06T10:08:13.208Z,8.50
2018-03-06T10:10:41.477Z,8.00
2018-03-06T10:13:09.821Z,8.30
2018-03-06T10:15:40.434Z,8.00
2018-03-06T10:18:09.487Z,9.10
2018-03-06T10:20:37.790Z,9.10
2018-03-06T10:23:06.149Z,8.90
2018-03-06T10:25:34.419Z,8.90
2018-03-06T10:28:03.888Z,8.40
2018-03-06T10:30:33.009Z,9.30
2018-03-06T10:33:01.282Z,9.30
2018-03-06T10:35:29.572Z,9.20
2018-03-06T10:37:57.937Z,9.80
2018-03-06T10:40:27.746Z,9.70
2018-03-06T10:42:56.026Z,9.60
2018-03-06T10:45:24.341Z,9.40
2018-03-06T10:47:52.679Z,9.40
2018-03-06T10:50:20.973Z,9.30
2018-03-06T10:52:50.702Z,9.80
2018-03-06T10:55:19.789Z,9.40
2018-03-06T10:57:48.101Z,9.40
2018-03-06T11:00:16.652Z,9.40
2018-03-06T11:02:44.953Z,10.00
2018-03-06T11:05:15.777Z,9.50
2018-03-06T11:07:44.195Z,9.40
2018-03-06T11:10:13.310Z,8.60
2018-03-06T11:12:41.587Z,9.30
2018-03-06T11:15:10.285Z,8.90
2018-03-06T11:17:40.609Z,9.30
2018-03-06T11:20:08.913Z,8.50
2018-03-06T11:22:38.274Z,8.40
2018-03-06T11:25:06.556Z,8.40
2018-03-06T11:27:34.933Z,8.60
2018-03-06T11:30:04.867Z,8.80
2018-03-06T11:32:33.938Z,9.20
2018-03-06T11:35:02.227Z,9.20
2018-03-06T11:37:30.536Z,9.20
2018-03-06T11:39:59.576Z,9.80
2018-03-06T11:42:30.749Z,9.80
2018-03-06T11:44:59.313Z,10.20
2018-03-06T11:47:27.692Z,9.50
2018-03-06T11:49:55.966Z,9.90
2018-03-06T11:52:24.554Z,9.50
2018-03-06T11:54:52.901Z,9.40
2018-03-06T11:57:21.186Z,9.30
2018-03-06T11:59:50.150Z,9.30
2018-03-06T12:02:19.191Z,10.10
2018-03-06T12:04:47.502Z,10.10
2018-03-06T12:07:19.564Z,9.60
2018-03-06T12:09:48.649Z,9.30
2018-03-06T12:12:16.988Z,9.30
2018-03-06T12:14:46.310Z,10.00
2018-03-06T12:17:14.579Z,9.90
2018-03-06T12:19:43.705Z,9.40
2018-03-06T12:22:12.060Z,10.00
2018-03-06T12:24:40.378Z,10.10
2018-03-06T12:27:09.486Z,10.30
2018-03-06T12:29:38.114Z,10.30
2018-03-06T12:32:11.254Z,10.50
2018-03-06T12:34:40.539Z,10.90
2018-03-06T12:37:09.694Z,11.00
2018-03-06T12:39:37.979Z,11.00
2018-03-06T12:42:06.311Z,10.30
2018-03-06T12:44:35.360Z,10.80
2018-03-06T12:47:03.734Z,10.80
2018-03-06T12:49:33.171Z,11.00
2018-03-06T12:52:02.241Z,10.60
2018-03-06T12:54:30.533Z,10.60
2018-03-06T12:56:59.187Z,11.00
2018-03-06T12:59:27.464Z,12.00
2018-03-06T13:01:55.743Z,11.20
2018-03-06T13:04:24.059Z,10.90
2018-03-06T13:06:53.104Z,10.90
2018-03-06T13:09:24.836Z,10.90
2018-03-06T13:11:53.248Z,11.40
2018-03-06T13:14:21.627Z,11.30
2018-03-06T13:16:49.901Z,10.70
2018-03-06T13:19:18.229Z,10.50
2018-03-06T13:21:47.344Z,11.10
2018-03-06T13:24:15.626Z,11.10
2018-03-06T13:29:20.686Z,11.40
2018-03-06T13:31:49.944Z,11.40
2018-03-06T13:34:18.996Z,11.20
2018-03-06T13:36:47.282Z,11.20
2018-03-06T13:39:15.867Z,10.90
2018-03-06T13:41:44.238Z,11.20
2018-03-06T13:44:14.677Z,11.20
2018-03-06T13:46:44.020Z,11.30
2018-03-06T13:49:13.061Z,12.10
2018-03-06T13:51:42.257Z,12.10
2018-03-06T13:54:10.700Z,11.90
2018-03-06T13:56:41.272Z,12.20
2018-03-06T13:59:09.565Z,12.10
2018-03-06T14:01:37.872Z,12.20
2018-03-06T14:04:06.180Z,11.70
2018-03-06T14:06:34.464Z,11.80
2018-03-06T14:09:05.623Z,11.70
2018-03-06T14:11:34.175Z,11.90
2018-03-06T14:14:02.434Z,12.40
2018-03-06T14:16:30.745Z,12.40
2018-03-06T14:18:59.009Z,12.40
2018-03-06T14:21:28.220Z,12.10
2018-03-06T14:23:56.721Z,12.20
2018-03-06T14:26:24.986Z,11.90
2018-03-06T14:28:53.365Z,12.10
2018-03-06T14:31:21.667Z,12.30
2018-03-06T14:33:51.986Z,12.20
2018-03-06T14:36:20.343Z,12.10
2018-03-06T14:38:49.131Z,11.70
2018-03-06T14:41:19.004Z,11.60
2018-03-06T14:43:47.277Z,12.00
2018-03-06T14:46:16.723Z,12.40
2018-03-06T14:48:45.040Z,12.00
2018-03-06T14:51:14.102Z,11.50
2018-03-06T14:53:43.125Z,11.50
2018-03-06T14:56:12.169Z,11.60
2018-03-06T14:58:40.767Z,11.60
2018-03-06T15:01:09.251Z,11.80
2018-03-06T15:03:37.550Z,12.00
2018-03-06T15:06:05.816Z,11.70
2018-03-06T15:08:34.146Z,11.60
2018-03-06T15:11:03.170Z,11.90
2018-03-06T15:13:32.558Z,11.70
2018-03-06T15:16:01.177Z,11.60
2018-03-06T15:18:30.238Z,11.10
2018-03-06T15:20:58.555Z,11.10
2018-03-06T15:23:29.486Z,11.00
2018-03-06T15:25:57.847Z,10.90
2018-03-06T15:28:26.132Z,10.90
2018-03-06T15:30:54.422Z,10.80
2018-03-06T15:33:22.691Z,10.70
2018-03-06T15:35:51.786Z,10.80
2018-03-06T15:38:20.106Z,10.70
2018-03-06T15:40:48.427Z,10.70
2018-03-06T15:43:16.773Z,10.60
2018-03-06T15:45:45.150Z,10.60
2018-03-06T15:48:15.264Z,10.60
2018-03-06T15:50:44.405Z,10.50
2018-03-06T15:53:12.987Z,10.50
2018-03-06T15:55:41.318Z,10.40
2018-03-06T15:58:09.775Z,10.40
2018-03-06T16:00:40.429Z,10.60
2018-03-06T16:03:08.738Z,10.60
2018-03-06T16:05:37.051Z,10.50
2018-03-06T16:08:05.676Z,10.40
2018-03-06T16:10:33.997Z,10.40
2018-03-06T16:13:03.888Z,10.40
2018-03-06T16:15:32.357Z,10.20
2018-03-06T16:18:01.749Z,10.10
2018-03-06T16:20:30.137Z,10.00
2018-03-06T16:22:58.581Z,10.00
2018-03-06T16:25:29.962Z,9.90
2018-03-06T16:27:58.373Z,9.90
2018-03-06T16:30:26.835Z,10.00
2018-03-06T16:32:55.201Z,9.90
2018-03-06T16:35:23.521Z,9.90
2018-03-06T16:37:53.373Z,9.80
2018-03-06T16:40:22.455Z,9.90
2018-03-06T16:42:51.543Z,9.70
2018-03-06T16:45:20.869Z,9.60
2018-03-06T16:47:49.994Z,9.60
2018-03-06T16:50:22.997Z,9.60
2018-03-06T16:52:51.311Z,9.60
2018-03-06T16:55:19.608Z,9.50
2018-03-06T16:57:48.087Z,9.50
2018-03-06T17:00:16.390Z,9.50
2018-03-06T17:02:45.234Z,9.30
2018-03-06T17:05:14.333Z,9.10
2018-03-06T17:07:43.405Z,9.10
2018-03-06T17:10:11.726Z,9.10
2018-03-06T17:12:40.363Z,9.00
2018-03-06T17:15:10.964Z,8.90
2018-03-06T17:17:39.620Z,8.80
2018-03-06T17:20:08.563Z,8.70
2018-03-06T17:22:36.868Z,8.50
2018-03-06T17:25:05.197Z,8.50
2018-03-06T17:27:36.124Z,8.40
2018-03-06T17:30:04.531Z,8.30
2018-03-06T17:32:32.908Z,8.30
2018-03-06T17:35:01.496Z,8.10
2018-03-06T17:37:29.790Z,8.20
2018-03-06T17:39:59.629Z,8.20
2018-03-06T17:42:28.753Z,8.00
2018-03-06T17:44:57.157Z,8.00
2018-03-06T17:47:25.612Z,7.90
2018-03-06T17:49:53.981Z,7.80
2018-03-06T17:52:24.649Z,7.80
2018-03-06T17:54:53.788Z,7.50
2018-03-06T17:57:23.560Z,7.50
2018-03-06T17:59:53.120Z,7.50
2018-03-06T18:02:22.395Z,7.40
2018-03-06T18:04:51.772Z,7.30
2018-03-06T18:07:20.101Z,7.20
2018-03-06T18:09:48.750Z,7.20
2018-03-06T18:12:17.155Z,7.20
2018-03-06T18:14:45.516Z,7.20
2018-03-06T18:17:15.295Z,7.00
2018-03-06T18:19:44.282Z,6.90
2018-03-06T18:22:12.600Z,6.90
2018-03-06T18:24:41.740Z,6.70
2018-03-06T18:27:10.402Z,6.70
2018-03-06T18:29:38.757Z,6.60
2018-03-06T18:32:08.028Z,6.60
2018-03-06T18:34:37.061Z,6.60
2018-03-06T18:37:06.146Z,6.60
2018-03-06T18:39:35.966Z,6.50
2018-03-06T18:42:18.086Z,6.60
2018-03-06T18:44:46.423Z,6.60
2018-03-06T18:47:14.741Z,6.40
2018-03-06T18:49:56.332Z,6.40
2018-03-06T18:52:24.873Z,6.40
2018-03-06T18:54:53.256Z,6.40
2018-03-06T18:57:21.805Z,6.30
2018-03-06T19:03:23.819Z,6.00
2018-03-06T19:06:03.906Z,6.00
2018-03-06T19:08:32.572Z,5.90
2018-03-06T19:11:01.673Z,5.90
2018-03-06T19:13:30.918Z,5.70
2018-03-06T19:15:59.284Z,5.70
2018-03-06T19:18:27.712Z,5.60
2018-03-06T19:20:56.908Z,5.60
2018-03-06T19:23:26.219Z,5.30
2018-03-06T19:25:54.823Z,5.30
2018-03-06T19:28:23.179Z,5.20
2018-03-06T19:30:51.780Z,5.20
2018-03-06T19:33:20.856Z,5.00
2018-03-06T19:35:49.157Z,5.00
2018-03-06T19:38:18.459Z,5.10
2018-03-06T19:40:47.542Z,5.10
2018-03-06T19:43:16.651Z,5.00
2018-03-06T19:45:45.147Z,5.00
2018-03-06T19:48:13.427Z,5.10
2018-03-06T19:50:43.331Z,5.20
2018-03-06T19:53:11.791Z,5.10
2018-03-06T19:55:40.871Z,5.20
2018-03-06T19:58:09.719Z,5.20
2018-03-06T20:00:38.314Z,5.10
2018-03-06T20:03:07.068Z,5.10
2018-03-06T20:05:35.469Z,5.10
2018-03-06T20:08:04.082Z,5.10
2018-03-06T20:10:32.366Z,5.10
2018-03-06T20:13:00.629Z,5.10
2018-03-06T20:15:29.693Z,5.00
2018-03-06T20:17:58.003Z,5.00
2018-03-06T20:20:26.280Z,5.00
2018-03-06T20:22:56.788Z,4.90
2018-03-06T20:25:30.790Z,4.80
2018-03-06T20:27:59.805Z,4.80
2018-03-06T20:30:33.916Z,4.80
2018-03-06T20:33:08.259Z,4.70
2018-03-06T20:35:37.253Z,4.60
2018-03-06T20:38:15.359Z,4.60
2018-03-06T20:40:43.676Z,4.50
2018-03-06T20:43:11.966Z,4.50
2018-03-06T20:45:46.023Z,4.40
2018-03-06T20:48:14.372Z,4.40
2018-03-06T20:50:42.666Z,4.40
2018-03-06T20:53:16.863Z,4.40
2018-03-06T20:55:45.163Z,4.30
2018-03-06T20:58:13.469Z,4.30
2018-03-06T21:00:45.207Z,4.20
2018-03-06T21:03:13.485Z,4.20
2018-03-06T21:05:41.742Z,4.20
2018-03-06T21:08:10.104Z,4.20
2018-03-06T21:10:38.406Z,4.10
2018-03-06T21:13:06.759Z,4.20
2018-03-06T21:15:35.278Z,4.20
2018-03-06T21:18:04.352Z,4.00
2018-03-06T21:20:32.628Z,4.00
2018-03-06T21:23:04.049Z,3.90
2018-03-06T21:25:33.118Z,3.90
2018-03-06T21:28:01.396Z,3.80
2018-03-06T21:30:29.684Z,3.80
2018-03-06T21:32:57.953Z,3.80
2018-03-06T21:35:26.238Z,3.90
2018-03-06T21:37:55.822Z,3.80
2018-03-06T21:40:24.092Z,3.70
2018-03-06T21:42:53.159Z,3.60
2018-03-06T21:45:22.218Z,3.60
2018-03-06T21:47:50.480Z,3.60
2018-03-06T21:50:20.238Z,3.60
2018-03-06T21:52:48.721Z,3.50
2018-03-06T21:55:18.576Z,3.60
2018-03-06T21:57:46.862Z,3.50
2018-03-06T22:00:15.166Z,3.60
2018-03-06T22:02:46.517Z,3.40
2018-03-06T22:05:14.784Z,3.30
2018-03-06T22:07:43.494Z,3.30
2018-03-06T22:10:13.265Z,3.40
2018-03-06T22:12:41.539Z,3.40
2018-03-06T22:15:13.434Z,3.40
2018-03-06T22:17:41.705Z,3.30
2018-03-06T22:20:09.957Z,3.30
2018-03-06T22:22:38.467Z,3.20
2018-03-06T22:25:06.817Z,3.30
2018-03-06T22:27:35.082Z,3.40
2018-03-06T22:30:03.939Z,3.30
2018-03-06T22:32:32.986Z,3.20
2018-03-06T22:35:01.255Z,3.20
2018-03-06T22:37:29.794Z,3.20
2018-03-06T22:39:59.333Z,3.20
2018-03-06T22:42:27.739Z,3.10
2018-03-06T22:44:56.587Z,3.10
2018-03-06T22:47:25.629Z,3.20
2018-03-06T22:49:53.938Z,3.20
2018-03-06T22:52:25.637Z,3.20
2018-03-06T22:54:53.911Z,3.10
2018-03-06T22:57:22.174Z,3.10
2018-03-06T22:59:50.512Z,3.00
2018-03-06T23:02:18.808Z,3.00
2018-03-06T23:04:48.172Z,3.00
2018-03-06T23:07:16.662Z,2.90
2018-03-06T23:09:46.422Z,2.90
2018-03-06T23:12:14.697Z,2.90
2018-03-06T23:14:43.155Z,2.90
2018-03-06T23:17:14.753Z,2.80
2018-03-06T23:19:43.110Z,2.80
2018-03-06T23:22:11.443Z,2.90
2018-03-06T23:24:40.532Z,2.90
2018-03-06T23:27:09.366Z,2.90
2018-03-06T23:29:38.490Z,2.90
2018-03-06T23:32:06.888Z,2.90
2018-03-06T23:34:35.147Z,2.80
2018-03-06T23:37:03.861Z,2.80
2018-03-06T23:39:32.153Z,2.80
2018-03-06T23:42:01.957Z,2.60
2018-03-06T23:44:31.792Z,2.40
2018-03-06T23:47:00.823Z,2.50
2018-03-06T23:49:29.090Z,2.40
2018-03-06T23:51:57.406Z,2.40
2018-03-06T23:54:28.968Z,2.40
2018-03-06T23:56:57.246Z,2.50
2018-03-06T23:59:25.723Z,2.40
